• Join FlightAware (Why Join?)
  • Login
  • US Flag GB Flag 
04:30 EDT


 

Airport Tracker/Info


-or-


 

Live Flight TrackerFlight Track Log ✈ DAL268 ✈ 20-May-2013 ✈ KJFK - LLBG / TLV

Flight Track Log - Related Links

Times and Time Zones

All times are in EDT time to prevent confusion due to time zone crossing. See the DAL268 flight status page for this flight to view local times or setup timezone preferences in your user account.

Time Position Orientation Groundspeed Altitude Reporting Facility
EDT Latitude Longitude Course Direction KTS MPH feet Rate Location/Type
23:45 40.6270 -73.7700 119° Southeast 187 215 400  Level FlightAware
23:45 40.6180 -73.7410 112° Southeast 204 235 1,000 1,260 Climbing FlightAware
23:46 40.6160 -73.7050 94° East 224 258 1,600 1,200 Climbing FlightAware
23:46 40.6310 -73.6619 65° Northeast 258 297 2,200 1,260 Climbing FlightAware ADS-B
23:47 40.6670 -73.6110 47° Northeast 293 337 3,100 1,740 Climbing FlightAware
23:47 40.6960 -73.5720 46° Northeast 305 351 4,300 2,580 Climbing FlightAware
23:48 40.7200 -73.5380 47° Northeast 307 353 5,500 2,760 Climbing FlightAware
23:48 40.7390 -73.5120 46° Northeast 309 356 6,400 2,640 Climbing FlightAware
23:49 40.7640 -73.4760 47° Northeast 312 359 7,500 2,580 Climbing FlightAware
23:49 40.7950 -73.4370 44° Northeast 315 362 8,800 2,400 Climbing FlightAware
23:49 40.8140 -73.4230 29° Northeast 315 362 9,300 2,040 Climbing FlightAware
23:50 40.8710 -73.3950 20° North 332 382 10,700 1,680 Climbing FlightAware
23:51 40.9340 -73.3650 20° North 365 420 11,600 1,200 Climbing FlightAware
23:51 41.0080 -73.3280 21° North 401 461 12,400 1,500 Climbing FlightAware
23:52 41.0790 -73.2910 21° North 414 476 13,800 2,100 Climbing FlightAware
23:53 41.1520 -73.2290 33° Northeast 428 493 15,400 2,160 Climbing FlightAware
23:53 41.1930 -73.1740 45° Northeast 431 496 16,500 2,040 Climbing FlightAware
23:54 41.2250 -73.1280 47° Northeast 435 501 17,300 1,920 Climbing FlightAware
23:54 41.2840 -73.0460 46° Northeast 444 511 18,600 1,680 Climbing FlightAware
23:55 41.3440 -72.9630 46° Northeast 456 525 19,600 1,320 Climbing FlightAware
23:56 41.4020 -72.8830 46° Northeast 469 540 20,400 1,380 Climbing FlightAware
23:56 41.4690 -72.7900 46° Northeast 478 550 21,600 780 Climbing FlightAware
23:57 41.5300 -72.7050 46° Northeast 478 550 21,600  Level FlightAware
23:58 41.5820 -72.6330 46° Northeast 478 550 21,600 1,620 Level FlightAware
23:58 41.4610 -72.8010 226° Southwest 23,700 2,460 Climbing FlightAware
23:58 41.6340 -72.5540 47° Northeast 24,300 960 Climbing FlightAware
23:59 41.7000 -72.4250 56° Northeast 496 571 24,900 900 Climbing FlightAware
00:00 41.7850 -72.3240 42° Northeast 503 579 25,800 1,440 Climbing FlightAware
00:01 41.8650 -72.2500 35° Northeast 510 587 27,000 1,500 Climbing FlightAware
00:01 41.9440 -72.1730 36° Northeast 515 593 27,800 1,320 Climbing FlightAware
00:02 42.0340 -72.0840 36° Northeast 512 589 29,000 1,320 Climbing FlightAware
00:03 42.1400 -71.9710 38° Northeast 509 586 30,200 1,200 Climbing FlightAware
00:04 42.1880 -71.9150 41° Northeast 509 586 30,700 540 Climbing FlightAware
00:04 42.2840 -71.8030 41° Northeast 512 589 31,000 180 Climbing FlightAware
00:05 42.3530 -71.7240 40° Northeast 511 588 31,000  Level FlightAware
00:06 42.4600 -71.5990 41° Northeast 507 583 31,000  Level FlightAware
00:07 42.5340 -71.5120 41° Northeast 504 580 31,000  Level FlightAware
00:07 42.6070 -71.4280 40° Northeast 502 578 31,000  Level FlightAware
00:08 42.6710 -71.3510 41° Northeast 503 579 31,000  Level FlightAware
00:09 42.7430 -71.2680 40° Northeast 504 580 31,000  Level FlightAware
00:10 42.8380 -71.1550 41° Northeast 506 582 31,000  Level FlightAware
00:10 42.9070 -71.0740 41° Northeast 505 581 31,000  Level FlightAware
00:11 42.9850 -70.9810 41° Northeast 505 581 31,000  Level FlightAware
00:12 43.0550 -70.8970 41° Northeast 504 580 31,000  Level FlightAware
00:12 43.1360 -70.8010 41° Northeast 501 577 31,000  Level FlightAware
00:13 43.2060 -70.7150 42° Northeast 502 578 31,000  Level FlightAware
00:14 43.2820 -70.6240 41° Northeast 505 581 31,000  Level FlightAware
00:14 43.3530 -70.5370 42° Northeast 506 582 31,000  Level FlightAware
00:15 43.4220 -70.4540 41° Northeast 506 582 31,000  Level FlightAware
00:16 43.5030 -70.3550 42° Northeast 506 582 31,000  Level FlightAware
00:17 43.5730 -70.2700 41° Northeast 506 582 31,000  Level FlightAware
00:17 43.6430 -70.1840 42° Northeast 506 582 31,000  Level FlightAware
00:18 43.7190 -70.0890 42° Northeast 506 582 31,000  Level FlightAware
00:19 43.7890 -70.0030 42° Northeast 507 583 31,000  Level FlightAware
00:19 43.8680 -69.9050 42° Northeast 506 582 31,000  Level FlightAware
00:20 43.9290 -69.8300 42° Northeast 507 583 31,000  Level FlightAware
00:21 43.9970 -69.7450 42° Northeast 506 582 31,000  Level FlightAware
00:21 44.0880 -69.6300 42° Northeast 504 580 31,000  Level FlightAware
00:22 44.1610 -69.5390 42° Northeast 503 579 31,000  Level FlightAware
00:23 44.2340 -69.4450 43° Northeast 502 578 31,000  Level FlightAware
00:24 44.3040 -69.3580 42° Northeast 503 579 31,000  Level FlightAware
00:24 44.3700 -69.2740 42° Northeast 503 579 31,000  Level FlightAware
00:25 44.4470 -69.1760 42° Northeast 504 580 31,000  Level FlightAware
00:26 44.5230 -69.0790 42° Northeast 504 580 31,000  Level FlightAware
00:26 44.5970 -68.9840 42° Northeast 504 580 31,000  Level FlightAware
00:27 44.6620 -68.9000 43° Northeast 504 580 31,000  Level FlightAware
00:28 44.7400 -68.7980 43° Northeast 504 580 31,000  Level FlightAware
00:28 44.8100 -68.7080 42° Northeast 503 579 31,000  Level FlightAware
00:29 44.8840 -68.6110 43° Northeast 500 575 31,000  Level FlightAware
00:30 44.9540 -68.5200 43° Northeast 498 573 31,000  Level FlightAware
00:31 45.0220 -68.4310 43° Northeast 498 573 31,000  Level FlightAware
00:31 45.0950 -68.3340 43° Northeast 498 573 31,000  Level FlightAware
00:32 45.1660 -68.2400 43° Northeast 498 573 31,000  Level FlightAware
00:33 45.2400 -68.1420 43° Northeast 498 573 31,000  Level FlightAware
00:33 45.3090 -68.0500 43° Northeast 502 578 31,000  Level FlightAware
00:34 45.3940 -67.9370 43° Northeast 496 571 31,000  Level FlightAware
00:35 45.5110 -67.7790 43° Northeast 489 563 31,000  Level FlightAware
00:37 45.6350 -67.6120 43° Northeast 492 566 31,000  Level FlightAware
00:38 45.7500 -67.4570 43° Northeast 492 566 31,000  Level FlightAware
00:39 45.8740 -67.2860 44° Northeast 491 565 31,000  Level FlightAware
00:40 45.9830 -67.1350 44° Northeast 487 560 31,000  Level FlightAware
00:41 46.0620 -67.0280 43° Northeast 483 556 31,000  Level FlightAware
00:42 46.1320 -66.9300 44° Northeast 482 555 31,000  Level FlightAware
00:42 46.1930 -66.8450 44° Northeast 482 555 31,000  Level FlightAware
00:43 46.2560 -66.7560 44° Northeast 482 555 31,000  Level FlightAware
00:44 46.3250 -66.6600 44° Northeast 482 555 31,000  Level FlightAware
00:45 46.3790 -66.5840 44° Northeast 482 555 31,000  Level FlightAware
00:45 46.4340 -66.5080 44° Northeast 482 555 31,000  Level FlightAware
00:46 46.4880 -66.4310 44° Northeast 482 555 31,000  Level FlightAware
00:47 46.5430 -66.3550 44° Northeast 482 555 31,000  Level FlightAware
00:47 46.6110 -66.2590 44° Northeast 482 555 31,000  Level FlightAware
00:48 46.6650 -66.1820 44° Northeast 482 555 31,000  Level FlightAware
00:49 46.7200 -66.1050 44° Northeast 482 555 31,000  Level FlightAware
00:49 46.7740 -66.0290 44° Northeast 482 555 31,000  Level FlightAware
00:50 46.8430 -65.9320 44° Northeast 482 555 31,000  Level FlightAware
00:51 46.8970 -65.8550 44° Northeast 482 555 31,000  Level FlightAware
00:52 46.9520 -65.7780 44° Northeast 482 555 31,000  Level FlightAware
00:52 47.0060 -65.7010 44° Northeast 482 555 31,000  Level FlightAware
00:53 47.1667 -65.4333 44° Northeast 480 552 31,000  Level Moncton Center
00:54 47.2667 -65.2833 45° Northeast 490 564 31,000  Level Moncton Center
00:55 47.3500 -65.1333 51° Northeast 490 564 31,000  Level Moncton Center
00:56 47.4500 -64.9833 45° Northeast 490 564 31,000  Level Moncton Center
00:57 47.5333 -64.8667 43° Northeast 490 564 31,000  Level Moncton Center
00:58 47.6333 -64.7167 45° Northeast 490 564 31,000  Level Moncton Center
00:59 47.7333 -64.5667 45° Northeast 480 552 31,000  Level Moncton Center
01:00 47.8167 -64.4500 43° Northeast 480 552 31,000  Level Moncton Center
01:01 47.9167 -64.3000 45° Northeast 480 552 31,000  Level Moncton Center
01:02 48.0000 -64.1500 50° Northeast 480 552 31,000  Level Moncton Center
01:02 48.0500 -64.0833 42° Northeast 480 552 31,000  Level Gander Center
01:03 48.1333 -63.9667 43° Northeast 480 552 31,000  Level Gander Center
01:04 48.2000 -63.8667 45° Northeast 480 552 31,000  Level Moncton Center
01:05 48.2833 -63.7000 53° Northeast 480 552 31,000  Level Moncton Center
01:06 48.3833 -63.5667 42° Northeast 480 552 31,000  Level Moncton Center
01:07 48.4667 -63.4167 50° Northeast 470 541 31,000  Level Moncton Center
01:08 48.5667 -63.2667 45° Northeast 470 541 31,000  Level Moncton Center
01:09 48.6500 -63.1333 47° Northeast 480 552 31,000  Level Moncton Center
01:09 48.6833 -63.0833 45° Northeast 480 552 31,000  Level Gander Center
01:10 48.7667 -62.9333 50° Northeast 480 552 31,000  Level Gander Center
01:11 48.8333 -62.8500 39° Northeast 490 564 31,000  Level Moncton Center
01:12 48.9333 -62.6833 48° Northeast 480 552 31,000  Level Moncton Center
01:13 49.0167 -62.5333 50° Northeast 480 552 31,000  Level Moncton Center
01:13 49.0500 -62.4833 45° Northeast 480 552 31,000  Level Gander Center
01:14 49.1500 -62.3333 44° Northeast 490 564 31,000  Level Gander Center
01:15 49.2333 -62.1833 50° Northeast 490 564 31,000  Level Gander Center
01:16 49.3000 -62.0667 49° Northeast 490 564 31,000  Level Moncton Center
01:17 49.3833 -61.9333 46° Northeast 480 552 31,000  Level Moncton Center
01:18 49.4833 -61.7500 50° Northeast 490 564 31,000  Level Moncton Center
01:19 49.5833 -61.6000 44° Northeast 490 564 31,000  Level Moncton Center
01:20 49.6500 -61.4500 55° Northeast 490 564 31,000  Level Moncton Center
01:20 49.7000 -61.3833 41° Northeast 490 564 31,000  Level Gander Center
01:21 49.7500 -61.2833 52° Northeast 490 564 31,000  Level Moncton Center
01:22 49.8500 -61.1333 44° Northeast 500 575 31,000  Level Moncton Center
01:23 49.9500 -60.9667 47° Northeast 490 564 31,000  Level Moncton Center
01:24 50.0167 -60.8000 58° Northeast 500 575 31,000  Level Moncton Center
01:24 50.0667 -60.7333 41° Northeast 500 575 31,000  Level Gander Center
01:25 50.1500 -60.5833 49° Northeast 500 575 31,000  Level Gander Center
01:26 50.2167 -60.4667 48° Northeast 500 575 31,000  Level Moncton Center
01:27 50.2833 -60.3167 55° Northeast 490 564 31,000  Level Moncton Center
01:27 50.3333 -60.2667 33° Northeast 490 564 31,000  Level Gander Center
01:28 50.4333 -60.1000 47° Northeast 500 575 31,000  Level Gander Center
01:29 50.5167 -59.9167 54° Northeast 500 575 31,000  Level Gander Center
01:30 50.6167 -59.7500 47° Northeast 490 564 31,000  Level Gander Center
01:31 50.7000 -59.6000 49° Northeast 500 575 31,000  Level Gander Center
01:32 50.7833 -59.4333 52° Northeast 500 575 31,000  Level Gander Center
01:33 50.8333 -59.3000 59° Northeast 500 575 31,000  Level Moncton Center
01:34 50.9167 -59.1333 52° Northeast 500 575 31,000  Level Moncton Center
01:34 50.9500 -59.0500 58° Northeast 500 575 31,000  Level Gander Center
01:35 51.0333 -58.8833 51° Northeast 500 575 31,000  Level Gander Center
01:36 51.1167 -58.7000 54° Northeast 490 564 31,000  Level Gander Center
01:37 51.1833 -58.5333 57° Northeast 500 575 31,000  Level Gander Center
01:38 51.2667 -58.3667 51° Northeast 500 575 31,000  Level Gander Center
01:39 51.3667 -58.1667 51° Northeast 500 575 31,100 600 Climbing Gander Center
01:40 51.4500 -57.9833 54° Northeast 510 587 32,200 900 Climbing Gander Center
01:41 51.5167 -57.7833 62° Northeast 510 587 33,000 360 Climbing Gander Center
01:42 51.6000 -57.6167 51° Northeast 510 587 33,000  Level Gander Center
01:43 51.6500 -57.4833 59° Northeast 510 587 33,000  Level Moncton Center
01:43 51.7167 -57.3667 47° Northeast 500 575 33,000  Level Gander Center
01:44 51.7833 -57.2000 57° Northeast 510 587 33,000  Level Gander Center
01:45 51.8500 -57.0500 54° Northeast 500 575 33,000  Level Gander Center
01:46 51.9333 -56.8667 54° Northeast 510 587 33,000  Level Gander Center
01:46 51.9500 -56.8333 51° Northeast 510 587 33,000  Level Gander Center
01:47 51.9833 -56.7500 57° Northeast 510 587 33,000  Level Moncton Center
01:48 52.0667 -56.5500 56° Northeast 510 587 33,000  Level Moncton Center
01:48 52.1000 -56.4833 51° Northeast 500 575 33,000  Level Gander Center
01:49 52.1667 -56.3167 57° Northeast 510 587 33,000  Level Gander Center
01:50 52.2500 -56.1167 56° Northeast 510 587 33,000  Level Gander Center
01:50 52.2667 -56.0667 61° Northeast 510 587 33,000  Level Gander Center
01:51 52.3000 -55.9833 57° Northeast 510 587 33,000  Level Moncton Center
01:52 52.3833 -55.8000 53° Northeast 510 587 33,000  Level Moncton Center
01:52 52.4167 -55.7167 57° Northeast 500 575 33,000  Level Gander Center
01:53 52.4500 -55.6000 65° Northeast 500 575 33,000  Level Moncton Center
01:54 52.5167 -55.4167 59° Northeast 510 587 33,000  Level Moncton Center
01:55 52.6000 -55.2167 55° Northeast 500 575 33,000  Level Moncton Center
01:55 52.6333 -55.1667 42° Northeast 490 564 33,000  Level Gander Center
01:56 52.7000 -54.9833 59° Northeast 500 575 33,000  Level Gander Center
01:57 52.7667 -54.8167 56° Northeast 500 575 33,000  Level Gander Center
01:58 52.8667 -54.6000 53° Northeast 500 575 33,000  Level Gander Center
01:59 52.9333 -54.4167 59° Northeast 500 575 33,000  Level Gander Center
01:59 52.9667 -54.3333 56° Northeast 500 575 33,000  Level Gander Center
02:00 53.0000 -54.2167 65° Northeast 500 575 33,000  Level Gander Center
02:01 53.0833 -54.0167 55° Northeast 500 575 33,000  Level Gander Center
02:02 53.1333 -53.8000 69° East 500 575 33,000  Level Gander Center
02:03 53.1833 -53.5667 70° East 500 575 33,000  Level Gander Center
02:04 53.2333 -53.3667 67° East 500 575 33,000  Level Gander Center
02:05 53.2833 -53.1667 67° East 500 575 33,000  Level Gander Center
02:06 53.3500 -52.9167 66° East 500 575 33,000  Level Gander Center
02:07 53.3833 -52.7167 74° East 510 587 33,000  Level Gander Center
02:08 53.4333 -52.4833 70° East 510 587 33,000  Level Gander Center
02:09 53.4833 -52.2833 67° East 510 587 33,000  Level Gander Center
02:09 53.5000 -52.1833 74° East 510 587 33,000  Level Gander Center
02:10 53.5333 -52.0333 69° East 510 587 33,000  Level Gander Center
02:11 53.5833 -51.8333 67° East 510 587 33,000  Level Gander Center
02:12 53.6333 -51.6000 70° East 510 587 33,000  Level Gander Center
02:12 53.6500 -51.5000 74° East 510 587 33,000  Level Gander Center
02:13 53.6833 -51.3167 73° East 510 587 33,000  Level Gander Center
02:14 53.7333 -51.1167 67° East 510 587 33,000  Level Gander Center
02:16 53.8033 -50.8293 68° East  Level FlightAware Approximate
02:23 54.1080 -49.2340 76° East  Level FlightAware Approximate
02:24 54.1401 -48.9992 77° East  Level FlightAware Approximate
02:25 54.1716 -48.7641 77° East  Level FlightAware Approximate
02:26 54.2028 -48.5286 77° East  Level FlightAware Approximate
02:27 54.2334 -48.2927 77° East  Level FlightAware Approximate
02:28 54.2636 -48.0565 78° East  Level FlightAware Approximate
02:29 54.2933 -47.8200 78° East  Level FlightAware Approximate
02:30 54.3226 -47.5831 78° East  Level FlightAware Approximate
02:31 54.3514 -47.3459 78° East  Level FlightAware Approximate
02:32 54.3797 -47.1083 78° East  Level FlightAware Approximate
02:33 54.4076 -46.8704 79° East  Level FlightAware Approximate
02:34 54.4350 -46.6323 79° East  Level FlightAware Approximate
02:35 54.4619 -46.3937 79° East  Level FlightAware Approximate
02:36 54.4884 -46.1549 79° East  Level FlightAware Approximate
02:37 54.5144 -45.9158 79° East  Level FlightAware Approximate
02:38 54.5399 -45.6764 79° East  Level FlightAware Approximate
02:39 54.5650 -45.4366 80° East  Level FlightAware Approximate
02:40 54.5895 -45.1966 80° East  Level FlightAware Approximate
02:41 54.6136 -44.9563 80° East  Level FlightAware Approximate
02:42 54.6373 -44.7157 80° East  Level FlightAware Approximate
02:43 54.6604 -44.4748 80° East  Level FlightAware Approximate
02:44 54.6831 -44.2337 81° East  Level FlightAware Approximate
02:45 54.7053 -43.9923 81° East  Level FlightAware Approximate
02:46 54.7270 -43.7506 81° East  Level FlightAware Approximate
02:47 54.7482 -43.5087 81° East  Level FlightAware Approximate
02:48 54.7689 -43.2665 81° East  Level FlightAware Approximate
02:49 54.7892 -43.0241 82° East  Level FlightAware Approximate
02:50 54.8090 -42.7815 82° East  Level FlightAware Approximate
02:51 54.8283 -42.5386 82° East  Level FlightAware Approximate
02:52 54.8471 -42.2954 82° East  Level FlightAware Approximate
02:53 54.8654 -42.0521 82° East  Level FlightAware Approximate
02:54 54.8832 -41.8085 83° East  Level FlightAware Approximate
02:55 54.9006 -41.5648 83° East  Level FlightAware Approximate
02:56 54.9174 -41.3208 83° East  Level FlightAware Approximate
02:57 54.9338 -41.0766 83° East  Level FlightAware Approximate
02:58 54.9497 -40.8322 83° East  Level FlightAware Approximate
02:59 54.9651 -40.5876 84° East  Level FlightAware Approximate
03:00 54.9800 -40.3429 84° East  Level FlightAware Approximate
03:01 54.9944 -40.0979 84° East  Level FlightAware Approximate
03:02 55.0059 -39.8525 86° East  Level FlightAware Approximate
03:03 55.0154 -39.6067 86° East  Level FlightAware Approximate
03:04 55.0244 -39.3608 86° East  Level FlightAware Approximate
03:05 55.0329 -39.1147 86° East  Level FlightAware Approximate
03:06 55.0409 -38.8686 87° East  Level FlightAware Approximate
03:07 55.0484 -38.6224 87° East  Level FlightAware Approximate
03:08 55.0554 -38.3761 87° East  Level FlightAware Approximate
03:09 55.0620 -38.1297 87° East  Level FlightAware Approximate
03:10 55.0681 -37.8832 87° East  Level FlightAware Approximate
03:11 55.0737 -37.6375 88° East  Level FlightAware Approximate
03:12 55.0787 -37.3917 88° East  Level FlightAware Approximate
03:13 55.0833 -37.1459 88° East  Level FlightAware Approximate
03:14 55.0874 -36.9000 88° East  Level FlightAware Approximate
03:15 55.0910 -36.6540 88° East  Level FlightAware Approximate
03:16 55.0941 -36.4080 89° East  Level FlightAware Approximate
03:17 55.0967 -36.1620 89° East  Level FlightAware Approximate
03:18 55.0988 -35.9160 89° East  Level FlightAware Approximate
03:19 55.1004 -35.6699 89° East  Level FlightAware Approximate
03:20 55.1015 -35.4238 89° East  Level FlightAware Approximate
03:21 55.1021 -35.1777 90° East  Level FlightAware Approximate
03:22 55.1022 -34.9316 90° East  Level FlightAware Approximate
03:23 55.1018 -34.6855 90° East  Level FlightAware Approximate
03:24 55.1009 -34.4394 90° East  Level FlightAware Approximate
03:25 55.0996 -34.1933 90° East  Level FlightAware Approximate
03:26 55.0977 -33.9473 91° East  Level FlightAware Approximate
03:27 55.0953 -33.7012 91° East  Level FlightAware Approximate
03:28 55.0925 -33.4552 91° East  Level FlightAware Approximate
03:29 55.0891 -33.2093 91° East  Level FlightAware Approximate
03:30 55.0853 -32.9633 91° East  Level FlightAware Approximate
03:31 55.0809 -32.7175 92° East  Level FlightAware Approximate
03:32 55.0761 -32.4716 92° East  Level FlightAware Approximate
03:33 55.0708 -32.2259 92° East  Level FlightAware Approximate
03:34 55.0650 -31.9802 92° East  Level FlightAware Approximate
03:35 55.0587 -31.7346 92° East  Level FlightAware Approximate
03:36 55.0519 -31.4891 93° East  Level FlightAware Approximate
03:37 55.0446 -31.2436 93° East  Level FlightAware Approximate
03:38 55.0368 -30.9983 93° East  Level FlightAware Approximate
03:39 55.0285 -30.7530 93° East  Level FlightAware Approximate
03:40 55.0198 -30.5079 93° East  Level FlightAware Approximate
03:41 55.0105 -30.2628 94° East  Level FlightAware Approximate
03:42 55.0007 -30.0179 94° East  Level FlightAware Approximate
03:43 55.0316 -29.7792 76° East  Level FlightAware Approximate
03:44 55.0653 -29.5405 76° East  Level FlightAware Approximate
03:45 55.0985 -29.3011 76° East  Level FlightAware Approximate
03:45 55.0000 -30.0000 76° East 530 610 33,000  Level ETMS Enhanced Traffic Management System
03:46 55.1313 -29.0613 76° East  Level FlightAware Approximate
03:47 55.1636 -28.8210 77° East  Level FlightAware Approximate
03:48 55.1955 -28.5804 77° East  Level FlightAware Approximate
03:49 55.2268 -28.3394 77° East  Level FlightAware Approximate
03:50 55.2577 -28.0980 77° East  Level FlightAware Approximate
03:51 55.3940 -26.9798 78° East 530 610 33,000  Level FlightAware Transoceanic
03:52 55.4234 -26.7255 79° East 530 610 33,000  Level FlightAware Transoceanic
03:53 55.4524 -26.4708 79° East 530 610 33,000  Level FlightAware Transoceanic
03:54 55.4807 -26.2158 79° East 530 610 33,000  Level FlightAware Transoceanic
03:55 55.5086 -25.9604 79° East 530 610 33,000  Level FlightAware Transoceanic
03:56 55.5359 -25.7046 79° East 530 610 33,000  Level FlightAware Transoceanic
03:57 55.5627 -25.4485 80° East 530 610 33,000  Level FlightAware Transoceanic
03:58 55.5890 -25.1920 80° East 530 610 33,000  Level FlightAware Transoceanic
03:59 55.6147 -24.9352 80° East 530 610 33,000  Level FlightAware Transoceanic
04:00 55.6399 -24.6781 80° East 530 610 33,000  Level FlightAware Transoceanic
04:01 55.6645 -24.4206 80° East 530 610 33,000  Level FlightAware Transoceanic
04:02 55.6886 -24.1628 81° East 530 610 33,000  Level FlightAware Transoceanic
04:03 55.7122 -23.9047 81° East 530 610 33,000  Level FlightAware Transoceanic
04:04 55.7352 -23.6463 81° East 530 610 33,000  Level FlightAware Transoceanic
04:05 55.7577 -23.3876 81° East 530 610 33,000  Level FlightAware Transoceanic
04:06 55.7796 -23.1286 82° East 530 610 33,000  Level FlightAware Transoceanic
04:07 55.8010 -22.8693 82° East 530 610 33,000  Level FlightAware Transoceanic
04:08 55.8218 -22.6097 82° East 530 610 33,000  Level FlightAware Transoceanic
04:09 55.8421 -22.3499 82° East 530 610 33,000  Level FlightAware Transoceanic
04:10 55.8619 -22.0898 82° East 530 610 33,000  Level FlightAware Transoceanic
04:11 55.8811 -21.8294 83° East 530 610 33,000  Level FlightAware Transoceanic
04:12 55.8997 -21.5687 83° East 530 610 33,000  Level FlightAware Transoceanic
04:13 55.9178 -21.3079 83° East 530 610 33,000  Level FlightAware Transoceanic
04:14 55.9353 -21.0467 83° East 530 610 33,000  Level FlightAware Transoceanic
04:15 55.9524 -20.7854 83° East 530 610 33,000  Level FlightAware Transoceanic
04:16 55.9688 -20.5238 84° East 530 610 33,000  Level FlightAware Transoceanic
04:17 55.9847 -20.2620 84° East 530 610 33,000  Level FlightAware Transoceanic
04:18 55.9994 -20.0112 84° East  Level FlightAware Approximate
04:19 56.0134 -19.7602 84° East  Level FlightAware Approximate
04:20 55.9907 -19.7710 94° East  Level FlightAware Approximate
04:21 55.9801 -19.5200 94° East  Level FlightAware Approximate
04:22 55.9689 -19.2692 94° East  Level FlightAware Approximate
04:23 55.9572 -19.0185 95° East  Level FlightAware Approximate
04:24 55.9450 -18.7680 95° East  Level FlightAware Approximate
04:25 55.9323 -18.5176 95° East  Level FlightAware Approximate
04:26 55.9191 -18.2674 95° East  Level FlightAware Approximate
04:27 55.9054 -18.0174 95° East  Level FlightAware Approximate
04:28 55.8912 -17.7675 96° East  Level FlightAware Approximate
04:29 55.8765 -17.5179 96° East  Level FlightAware Approximate
04:30 55.8613 -17.2684 96° East  Level FlightAware Approximate
04:31 55.8455 -17.0191 96° East  Level FlightAware Approximate
04:32 55.8293 -16.7701 97° East  Level FlightAware Approximate
04:33 55.8126 -16.5212 97° East  Level FlightAware Approximate
04:34 55.7953 -16.2726 97° East  Level FlightAware Approximate
04:35 55.7776 -16.0242 97° East  Level FlightAware Approximate
04:36 55.7593 -15.7760 97° East  Level FlightAware Approximate
04:37 55.7406 -15.5280 98° East  Level FlightAware Approximate
04:38 55.7214 -15.2803 98° East  Level FlightAware Approximate
04:39 55.7016 -15.0328 98° East  Level FlightAware Approximate
04:40 55.6814 -14.7856 98° East  Level FlightAware Approximate
04:41 55.6607 -14.5387 98° East  Level FlightAware Approximate
04:42 55.6395 -14.2920 99° East  Level FlightAware Approximate
04:43 55.6177 -14.0456 99° East  Level FlightAware Approximate
04:44 55.5955 -13.7994 99° East  Level FlightAware Approximate
04:45 55.5728 -13.5536 99° East  Level FlightAware Approximate
04:46 55.5496 -13.3080 99° East  Level FlightAware Approximate
04:47 55.5260 -13.0627 100° East  Level FlightAware Approximate
04:48 55.5018 -12.8177 100° East  Level FlightAware Approximate
04:49 55.4769 -12.5731 100° East  Level FlightAware Approximate
04:49 55.6310 -11.5900 100° East 562 647 33,000  Level FlightAware
04:50 55.4515 -12.3288 100° East  Level FlightAware Approximate
04:51 55.4257 -12.0849 100° East  Level FlightAware Approximate
04:51 55.5470 -11.0630 106° East 561 646 33,000  Level FlightAware
04:54 55.4440 -10.4775 107° East  Level Estimated
04:55 55.4015 -10.2410 107° East  Level Estimated
04:55 55.3530 -9.9910 107° East 561 646 33,000  Level FlightAware
04:56 55.2980 -9.7590 113° Southeast 561 646 33,000  Level FlightAware
04:57 55.2130 -9.4210 114° Southeast 564 649 33,000  Level FlightAware
04:58 55.1600 -9.2170 114° Southeast 563 648 33,000  Level FlightAware
04:59 55.1190 -9.0510 113° Southeast 563 648 33,000 -1,620 Level FlightAware
04:59 55.0940 -8.9536 113° Southeast 492 566 31,500 -2,580 Descending FlightAware UK
04:59 55.0747 -8.8793 114° Southeast 494 568 31,500 3,900 Level FlightAware UK
05:00 55.0760 -8.8860 114° Southeast 563 648 33,000  Climbing FlightAware
05:00 55.0490 -8.7802 114° Southeast 492 566 31,500 -2,460 Descending FlightAware UK
05:00 55.0300 -8.7058 114° Southeast 492 566 31,500 4,260 Level FlightAware UK
05:00 55.0330 -8.7200 114° Southeast 559 643 33,000  Climbing FlightAware
05:00 55.0108 -8.6317 114° Southeast 494 568 31,500 -2,760 Descending FlightAware UK
05:01 54.9914 -8.5568 114° Southeast 494 568 31,500 3,000 Level FlightAware UK
05:01 54.9850 -8.5310 114° Southeast 558 642 33,000  Climbing FlightAware
05:01 54.9590 -8.4335 114° Southeast 494 568 31,500 -2,520 Descending FlightAware UK
05:02 54.9395 -8.3596 115° Southeast 492 566 31,500 4,080 Level FlightAware UK
05:02 54.9430 -8.3710 115° Southeast 558 642 33,000  Climbing FlightAware
05:02 54.9135 -8.2612 115° Southeast 492 566 31,500 -2,400 Descending FlightAware UK
05:02 54.8940 -8.1874 115° Southeast 492 566 31,500 3,600 Level FlightAware UK
05:02 54.8920 -8.1830 115° Southeast 558 642 33,000  Climbing FlightAware
05:03 54.8680 -8.0894 115° Southeast 492 566 31,500 -2,580 Descending FlightAware UK
05:03 54.8481 -8.0160 115° Southeast 492 566 31,500 3,900 Level FlightAware UK
05:03 54.8490 -8.0190 115° Southeast 558 642 33,000  Climbing FlightAware
05:03 54.8219 -7.9182 115° Southeast 492 566 31,500 -2,460 Descending FlightAware UK
05:04 54.8021 -7.8448 115° Southeast 494 568 31,500 4,260 Level FlightAware UK
05:04 54.8060 -7.8600 115° Southeast 563 648 33,000  Climbing FlightAware
05:04 54.7823 -7.7713 115° Southeast 492 566 31,500 -2,760 Descending FlightAware UK
05:04 54.7625 -7.6981 115° Southeast 492 566 31,500 3,000 Level FlightAware UK
05:04 54.7550 -7.6730 115° Southeast 562 647 33,000  Climbing FlightAware
05:05 54.7293 -7.5761 115° Southeast 492 566 31,500 -2,520 Descending FlightAware UK
05:05 54.7092 -7.5032 115° Southeast 492 566 31,500 4,080 Level FlightAware UK
05:05 54.7110 -7.5140 115° Southeast 561 646 33,000  Climbing FlightAware
05:05 54.6825 -7.4060 115° Southeast 492 566 31,500 -2,400 Descending FlightAware UK
05:06 54.6623 -7.3331 116° Southeast 492 566 31,500 3,600 Level FlightAware UK
05:06 54.6610 -7.3280 116° Southeast 562 647 33,000  Climbing FlightAware
05:06 54.6353 -7.2353 116° Southeast 494 568 31,500 -2,520 Descending FlightAware UK
05:06 54.6152 -7.1627 116° Southeast 494 568 31,500 4,080 Level FlightAware UK
05:07 54.6170 -7.1710 116° Southeast 561 646 33,000  Climbing FlightAware
05:07 54.5884 -7.0659 116° Southeast 496 571 31,500 -2,400 Descending FlightAware UK
05:07 54.5680 -6.9937 116° Southeast 494 568 31,500 4,500 Level FlightAware UK
05:07 54.5710 -7.0060 116° Southeast 560 644 33,000  Climbing FlightAware
05:07 54.5477 -6.9216 116° Southeast 494 568 31,500 -2,700 Descending FlightAware UK
05:08 54.5274 -6.8497 116° Southeast 494 568 31,500 3,060 Level FlightAware UK
05:08 54.5210 -6.8300 116° Southeast 557 641 33,000  Climbing FlightAware
05:08 54.4936 -6.7304 116° Southeast 490 564 31,500  Descending FlightAware UK
05:09 54.4800 -6.6830 116° Southeast 555 639 33,000  Climbing FlightAware
05:09 54.4532 -6.5877 116° Southeast 490 564 31,500 -2,760 Descending FlightAware UK
05:09 54.4328 -6.5165 116° Southeast 490 564 31,500 3,000 Level FlightAware UK
05:09 54.4260 -6.4930 116° Southeast 555 639 33,000  Climbing FlightAware
05:10 54.3987 -6.3982 116° Southeast 490 564 31,500 -2,520 Descending FlightAware UK
05:10 54.3783 -6.3272 116° Southeast 488 562 31,500 4,080 Level FlightAware UK
05:10 54.3800 -6.3350 116° Southeast 555 639 33,000  Climbing FlightAware
05:10 54.3441 -6.2093 116° Southeast 490 564 31,500  Descending FlightAware UK
05:11 54.3400 -6.1970 116° Southeast 553 636 33,000  Climbing FlightAware
05:11 54.3166 -6.1149 116° Southeast 490 564 31,500 -2,760 Descending FlightAware UK
05:11 54.2959 -6.0430 116° Southeast 490 564 31,500 2,520 Level FlightAware UK
05:11 54.2820 -6.0000 116° Southeast 554 638 33,000  Climbing FlightAware
05:12 54.2472 -5.8778 116° Southeast 492 566 31,500  Descending FlightAware UK
05:12 54.2350 -5.8390 116° Southeast 554 638 33,000  Climbing FlightAware
05:12 54.2055 -5.7364 116° Southeast 492 566 31,500  Descending FlightAware UK
05:13 54.1830 -5.6620 116° Southeast 554 638 33,000  Climbing FlightAware
05:13 54.1428 -5.5248 116° Southeast 490 564 31,500  Descending FlightAware UK
05:14 54.1390 -5.5140 116° Southeast 553 636 33,000  Climbing FlightAware
05:14 54.1075 -5.4070 116° Southeast 490 564 31,500  Descending FlightAware UK
05:14 54.0970 -5.3730 116° Southeast 553 636 33,000  Climbing FlightAware
05:14 54.0723 -5.2902 116° Southeast 494 568 31,500 -2,760 Descending FlightAware UK
05:15 54.0512 -5.2203 117° Southeast 492 566 31,500 2,520 Level FlightAware UK
05:15 54.0360 -5.1710 117° Southeast 554 638 33,000  Climbing FlightAware
05:15 54.0090 -5.0808 117° Southeast 492 566 31,500 -2,460 Descending FlightAware UK
05:16 53.9880 -5.0112 117° Southeast 492 566 31,500 4,260 Level FlightAware UK
05:16 53.9870 -5.0080 117° Southeast 552 635 33,000  Climbing FlightAware
05:16 53.9745 -4.9377 117° Southeast 490 564 31,500  Descending FlightAware UK
05:16 53.9600 -4.8440 117° Southeast 542 624 33,000  Climbing FlightAware
05:17 53.9487 -4.7644 117° Southeast 490 564 31,500  Descending FlightAware UK
05:17 53.9330 -4.6620 117° Southeast 544 626 33,000  Climbing FlightAware
05:17 53.9150 -4.5416 117° Southeast 492 566 31,500 120 Descending FlightAware UK
05:18 53.9080 -4.4980 117° Southeast 544 626 33,100  Climbing FlightAware
05:18 53.8925 -4.3923 117° Southeast 492 566 31,500 -2,400 Descending FlightAware UK
05:18 53.8810 -4.3183 105° East 490 564 31,500 3,900 Level FlightAware UK
05:18 53.8790 -4.3040 105° East 542 624 33,000  Climbing FlightAware
05:19 53.8656 -4.2197 105° East 490 564 31,500 -2,460 Descending FlightAware UK
05:19 53.8541 -4.1458 105° East 490 564 31,500 4,260 Level FlightAware UK
05:19 53.8540 -4.1480 105° East 543 625 33,000  Climbing FlightAware
05:19 53.8426 -4.0720 105° East 490 564 31,500 -2,340 Descending FlightAware UK
05:20 53.8273 -3.9734 105° East 490 564 31,500 3,600 Level FlightAware UK
05:20 53.8280 -3.9800 105° East 544 626 33,000  Climbing FlightAware
05:20 53.8113 -3.8740 105° East 490 564 31,500  Descending FlightAware UK
05:21 53.7910 -3.8020 105° East 556 640 33,000  Climbing FlightAware
05:21 53.7584 -3.7146 105° East 492 566 31,500  Descending FlightAware UK
05:21 53.7180 -3.6380 105° East 567 652 33,000  Climbing FlightAware
05:22 53.6681 -3.5680 105° East 490 564 31,500  Descending FlightAware UK
05:22 53.6390 -3.5280 105° East 567 652 33,000  Climbing FlightAware
05:22 53.5951 -3.4658 105° East 492 566 31,500  Descending FlightAware UK
05:23 53.5570 -3.4160 105° East 567 652 33,000  Climbing FlightAware
05:23 53.5223 -3.3665 105° East 492 566 31,500  Descending FlightAware UK
05:23 53.4680 -3.2940 105° East 568 654 33,000 1,680 Climbing FlightAware
05:24 53.4173 -3.2244 141° Southeast 568 654 33,000 -2,460 Level FlightAware ADS-B
05:24 53.3877 -3.1827 141° Southeast 492 566 31,500  Descending FlightAware UK
05:24 53.3533 -3.1338 141° Southeast 567 652 33,000 1,860 Climbing FlightAware ADS-B
05:25 53.2950 -3.0470 138° Southeast 567 652 33,000  Level FlightAware
05:25 53.2780 -3.0200 137° Southeast 567 652 33,000 -2,520 Level FlightAware ADS-B
05:25 53.2235 -2.9372 137° Southeast 492 566 31,500  Descending FlightAware UK
05:26 53.2103 -2.9173 137° Southeast 566 651 33,000 2,100 Climbing FlightAware ADS-B
05:26 53.1431 -2.8175 138° Southeast 566 651 33,000  Level FlightAware ADS-B
05:27 53.0839 -2.7273 138° Southeast 566 651 33,000 -1,920 Level FlightAware ADS-B
05:27 53.0490 -2.6739 138° Southeast 492 566 31,500  Descending FlightAware UK
05:27 53.0197 -2.6344 138° Southeast 565 650 33,000  Climbing FlightAware ADS-B
05:27 52.9793 -2.5695 138° Southeast 492 566 31,500  Descending FlightAware UK
05:28 52.9581 -2.5391 138° Southeast 564 649 33,000  Climbing FlightAware ADS-B
05:28 52.9210 -2.4832 138° Southeast 492 566 31,500  Descending FlightAware UK
05:28 52.8864 -2.4329 138° Southeast 563 648 33,000  Climbing FlightAware ADS-B
05:29 52.8279 -2.3458 138° Southeast 492 566 31,500  Descending FlightAware UK
05:29 52.8151 -2.3271 138° Southeast 562 647 33,000  Climbing FlightAware ADS-B
05:29 52.7811 -2.2767 138° Southeast 492 566 31,500  Descending FlightAware UK
05:30 52.7447 -2.2244 138° Southeast 562 647 33,000  Climbing FlightAware ADS-B
05:30 52.6993 -2.1577 138° Southeast 492 566 31,500  Descending FlightAware UK
05:30 52.6765 -2.1252 138° Southeast 562 647 33,000 1,620 Climbing FlightAware ADS-B
05:31 52.5958 -2.0092 139° Southeast 562 647 33,000 -1,500 Level FlightAware ADS-B
05:31 52.5589 -1.9535 139° Southeast 492 566 31,500  Descending FlightAware UK
05:31 52.5315 -1.9162 139° Southeast 562 647 33,000  Climbing FlightAware ADS-B
05:32 52.4887 -1.8523 139° Southeast 494 568 31,500  Descending FlightAware UK
05:32 52.4722 -1.8294 139° Southeast 561 646 33,000 2,280 Climbing FlightAware ADS-B
05:32 52.4133 -1.7455 139° Southeast 561 646 33,000 -1,980 Level FlightAware ADS-B
05:33 52.3830 -1.7008 139° Southeast 492 566 31,500  Descending FlightAware UK
05:33 52.3529 -1.6543 139° Southeast 559 643 33,000  Climbing FlightAware ADS-B
05:33 52.3162 -1.5954 139° Southeast 492 566 31,500  Descending FlightAware UK
05:33 52.2962 -1.5611 139° Southeast 557 641 33,000 2,100 Climbing FlightAware ADS-B
05:34 52.2429 -1.4696 134° Southeast 555 639 33,000 -1,860 Level FlightAware ADS-B
05:34 52.2113 -1.4118 134° Southeast 492 566 31,500  Descending FlightAware UK
05:34 52.1873 -1.3729 134° Southeast 555 639 33,000  Climbing FlightAware ADS-B
05:35 52.1576 -1.3209 134° Southeast 492 566 31,500  Descending FlightAware UK
05:35 52.1331 -1.2827 134° Southeast 554 638 33,000 2,040 Climbing FlightAware ADS-B
05:35 52.0795 -1.1900 133° Southeast 552 635 33,000  Level FlightAware ADS-B
05:36 52.0247 -1.1012 135° Southeast 551 634 33,000 -1,740 Level FlightAware ADS-B
05:36 51.9866 -1.0347 135° Southeast 492 566 31,500  Descending FlightAware UK
05:36 51.9701 -1.0095 135° Southeast 549 632 33,000 2,220 Climbing FlightAware ADS-B
05:37 51.9158 -0.9183 134° Southeast 547 629 33,000 -1,800 Level FlightAware ADS-B
05:37 51.8800 -0.8583 134° Southeast 492 566 31,500  Descending FlightAware UK
05:37 51.8626 -0.8306 134° Southeast 547 629 33,000 2,160 Climbing FlightAware ADS-B
05:38 51.8085 -0.7407 134° Southeast 546 628 33,000  Level FlightAware ADS-B
05:39 51.7545 -0.6539 135° Southeast 544 626 33,000 -1,860 Level FlightAware ADS-B
05:39 51.7207 -0.5969 135° Southeast 490 564 31,500  Descending FlightAware UK
05:39 51.7003 -0.5647 135° Southeast 544 626 33,000 2,100 Climbing FlightAware ADS-B
05:40 51.6466 -0.4785 135° Southeast 544 626 33,000 -1,920 Level FlightAware ADS-B
05:40 51.6142 -0.4249 135° Southeast 490 564 31,500  Descending FlightAware UK
05:40 51.5926 -0.3929 135° Southeast 544 626 33,000 2,040 Climbing FlightAware ADS-B
05:41 51.5367 -0.3020 135° Southeast 543 625 33,000  Level FlightAware ADS-B
05:41 51.4804 -0.2146 136° Southeast 542 624 33,000 -1,920 Level FlightAware ADS-B
05:41 51.4526 -0.1695 136° Southeast 492 566 31,500  Descending FlightAware UK
05:42 51.4221 -0.1217 136° Southeast 542 624 33,000 1,860 Climbing FlightAware ADS-B
05:42 51.3669 -0.0347 135° Southeast 541 623 33,000  Level FlightAware ADS-B
05:43 51.3272 0.0305 134° Southeast 534 615 33,000  Level FlightAware ADS-B
05:43 51.3140 0.0549 131° Southeast 528 608 33,000  Level FlightAware ADS-B
05:43 51.2904 0.1131 123° Southeast 517 595 33,000  Level FlightAware ADS-B
05:43 51.2725 0.1783 114° Southeast 507 583 33,000 -2,280 Level FlightAware ADS-B
05:44 51.2589 0.2573 114° Southeast 492 566 31,500  Descending FlightAware UK
05:44 51.2557 0.2919 114° Southeast 500 575 33,000 2,160 Climbing FlightAware ADS-B
05:44 51.2493 0.4019 95° East 485 558 33,000 -1,800 Level FlightAware ADS-B
05:45 51.2454 0.4707 95° East 488 562 31,500  Descending FlightAware UK
05:45 51.2421 0.5268 95° East 486 559 33,000  Climbing FlightAware ADS-B
05:45 51.2379 0.5998 95° East 490 564 31,500  Descending FlightAware UK
05:45 51.2357 0.6374 95° East 487 560 33,000  Climbing FlightAware ADS-B
05:46 51.2315 0.7070 95° East 490 564 31,500  Descending FlightAware UK
05:46 51.2281 0.7591 95° East 487 560 33,000  Climbing FlightAware ADS-B
05:46 51.2247 0.8150 95° East 492 566 31,500  Descending FlightAware UK
05:47 51.2205 0.8802 95° East 488 562 33,000 1,380 Climbing FlightAware ADS-B
05:47 51.2105 1.0334 96° East 486 559 33,000 -1,320 Level FlightAware ADS-B
05:48 51.2040 1.1355 96° East 492 566 31,500  Descending FlightAware UK
05:48 51.2000 1.2040 96° East 484 557 33,000  Climbing FlightAware
05:48 51.1942 1.2850 96° East 490 564 31,500 -2,460 Descending FlightAware UK
05:49 51.1900 1.3486 96° East 488 562 31,500 2,160 Level FlightAware UK
05:49 51.1860 1.4120 96° East 483 556 33,000  Climbing FlightAware
05:49 51.1800 1.4971 96° East 490 564 31,500  Descending FlightAware UK
05:50 51.1760 1.5510 96° East 485 558 33,000  Climbing FlightAware
05:50 51.1704 1.6247 96° East 488 562 31,500 -2,400 Descending FlightAware UK
05:50 51.1593 1.6889 105° East 488 562 31,500 3,840 Level FlightAware UK
05:50 51.1570 1.6960 105° East 497 572 33,100 1,860 Climbing FlightAware
05:51 51.1190 1.8420 112° Southeast 505 581 33,000 -1,680 Descending FlightAware
05:51 51.0989 1.9137 112° Southeast 496 571 31,500 -2,460 Descending FlightAware UK
05:52 51.0815 1.9741 115° Southeast 496 571 31,500 3,420 Level FlightAware UK
05:52 51.0760 1.9900 115° Southeast 502 578 33,000  Climbing FlightAware
05:52 51.0582 2.0553 115° Southeast 492 566 31,500  Descending FlightAware UK
05:52 51.0510 2.0770 115° Southeast 502 578 33,000  Climbing FlightAware
05:52 51.0407 2.1154 115° Southeast 492 566 31,500 -5,640 Descending FlightAware UK
05:53 51.0289 2.1553 115° Southeast 492 566 31,500 1,920 Level FlightAware UK
05:53 50.9980 2.2600 115° Southeast 501 577 33,000  Climbing FlightAware
05:54 50.9757 2.3352 115° Southeast 490 564 31,500  Descending FlightAware UK
05:54 50.9590 2.3900 115° Southeast 501 577 33,000  Climbing FlightAware
05:54 50.9402 2.4546 115° Southeast 494 568 31,500  Descending FlightAware UK
05:55 50.9128 2.5457 115° Southeast 501 577 33,000 1,380 Climbing FlightAware ADS-B
05:55 50.8800 2.6580 115° Southeast 500 575 33,000 -1,620 Level FlightAware
05:56 50.8573 2.7326 115° Southeast 492 566 31,500  Descending FlightAware UK
05:56 50.8370 2.7970 115° Southeast 501 577 33,000  Climbing FlightAware
05:56 50.8036 2.9107 115° Southeast 494 568 31,500  Descending FlightAware UK
05:57 50.7950 2.9390 115° Southeast 498 573 33,000  Climbing FlightAware
05:57 50.7622 3.0489 115° Southeast 492 566 31,500  Descending FlightAware UK
05:57 50.7560 3.0660 115° Southeast 497 572 33,000  Climbing FlightAware
05:58 50.7201 3.1864 115° Southeast 492 566 31,500  Descending FlightAware UK
05:58 50.7190 3.1870 115° Southeast 496 571 33,000  Climbing FlightAware
05:58 50.6902 3.2839 115° Southeast 490 564 31,500 -2,220 Descending FlightAware UK
05:59 50.6721 3.3421 116° Southeast 490 564 31,500 3,300 Level FlightAware UK
05:59 50.6680 3.3530 116° Southeast 493 567 33,000 1,800 Climbing FlightAware
05:59 50.6280 3.4830 116° Southeast 493 567 33,000 -1,320 Level FlightAware
06:00 50.5936 3.5955 116° Southeast 490 564 31,500  Descending FlightAware UK
06:00 50.5890 3.6100 116° Southeast 496 571 33,000 1,920 Climbing FlightAware
06:01 50.5490 3.7370 116° Southeast 496 571 33,000 -1,140 Level FlightAware
06:01 50.5017 3.8888 116° Southeast 492 566 31,500 -1,500 Descending FlightAware UK
06:02 50.4834 3.9474 116° Southeast 492 566 31,500 1,920 Level FlightAware UK
06:02 50.4630 4.0100 116° Southeast 497 572 33,000 1,320 Climbing FlightAware
06:03 50.4180 4.1530 116° Southeast 495 570 33,000 -1,440 Level FlightAware
06:03 50.3910 4.2408 116° Southeast 1 1 31,500 -2,220 Descending FlightAware UK
06:04 50.3720 4.2980 117° Southeast 1 1 31,500 4,080 Level FlightAware UK
06:04 50.3710 4.2980 117° Southeast 494 568 33,000 1,140 Climbing FlightAware
06:04 50.3349 4.4141 117° Southeast 1 1 32,200 1,320 Descending FlightAware UK
06:04 50.3300 4.4270 117° Southeast 498 573 33,900 1,980 Climbing FlightAware
06:05 50.3106 4.4923 117° Southeast 1 1 33,000 -900 Descending FlightAware UK
06:05 50.2918 4.5496 117° Southeast 1 1 33,400 780 Climbing FlightAware UK
06:05 50.2731 4.6068 117° Southeast 1 1 33,500 4,560 Climbing FlightAware UK
06:05 50.2760 4.5960 117° Southeast 490 564 35,000  Climbing FlightAware
06:05 50.2544 4.6635 117° Southeast 1 1 33,500 -2,760 Descending FlightAware UK
06:06 50.2354 4.7199 118° Southeast 1 1 33,500 3,600 Level FlightAware UK
06:06 50.2370 4.7170 118° Southeast 487 560 35,000  Climbing FlightAware
06:06 50.2125 4.7980 118° Southeast 1 1 33,500 -2,580 Descending FlightAware UK
06:06 50.1945 4.8557 116° Southeast 1 1 33,500 3,900 Level FlightAware UK
06:07 50.1930 4.8490 116° Southeast 486 559 35,000 1,980 Climbing FlightAware
06:07 50.1510 4.9770 117° Southeast 487 560 35,000 60 Level FlightAware
06:08 50.1050 5.1180 117° Southeast 487 560 35,100  Climbing FlightAware
06:09 50.0640 5.2400 118° Southeast 491 565 35,000 -120 Descending FlightAware
06:09 50.0160 5.3870 117° Southeast 492 566 35,000  Level FlightAware
06:10 49.9610 5.5470 118° Southeast 492 566 35,000  Level FlightAware
06:11 49.9140 5.6900 117° Southeast 494 568 35,000  Level FlightAware
06:12 49.8700 5.8190 118° Southeast 495 570 35,000  Level FlightAware
06:12 49.8240 5.9540 118° Southeast 495 570 35,000  Level FlightAware
06:13 49.7810 6.0790 118° Southeast 493 567 35,000  Level FlightAware
06:14 49.7390 6.2030 118° Southeast 491 565 35,000  Level FlightAware
06:14 49.6890 6.3450 119° Southeast 491 565 35,000  Level FlightAware
06:16 49.6200 6.5430 118° Southeast 493 567 35,000  Level FlightAware
06:16 49.5830 6.6480 118° Southeast 495 570 35,000  Level FlightAware
06:17 49.5350 6.7850 118° Southeast 493 567 35,000  Level FlightAware
06:18 49.4900 6.9120 119° Southeast 493 567 35,000  Level FlightAware
06:18 49.4400 7.0510 119° Southeast 498 573 35,000  Level FlightAware
06:19 49.3970 7.1750 118° Southeast 498 573 35,000  Level FlightAware
06:20 49.3460 7.3110 120° Southeast 499 574 35,000  Level FlightAware
06:20 49.2950 7.4540 119° Southeast 500 575 35,000  Level FlightAware
06:21 49.2690 7.5280 118° Southeast 502 578 35,000  Level FlightAware
06:22 49.2160 7.6710 120° Southeast 503 579 35,000  Level FlightAware
06:22 49.1740 7.7890 119° Southeast 505 581 35,000  Level FlightAware
06:23 49.1280 7.9110 120° Southeast 502 578 35,000  Level FlightAware
06:24 49.0780 8.0470 119° Southeast 503 579 35,000  Level FlightAware
06:24 49.0280 8.1810 120° Southeast 503 579 35,000  Level FlightAware
06:25 48.9830 8.3020 120° Southeast 503 579 35,000  Level FlightAware
06:26 48.9300 8.4410 120° Southeast 506 582 35,000  Level FlightAware
06:27 48.8940 8.5400 119° Southeast 505 581 35,000  Level FlightAware
06:27 48.8330 8.7000 120° Southeast 501 577 35,000 600 Level FlightAware
06:28 48.7840 8.8280 120° Southeast 504 580 35,800 1,260 Climbing FlightAware
06:29 48.7310 8.9650 120° Southeast 495 570 36,800 840 Climbing FlightAware
06:29 48.6820 9.0940 120° Southeast 495 570 37,000 120 Climbing FlightAware
06:30 48.6330 9.2140 122° Southeast 501 577 37,000  Level FlightAware
06:31 48.5550 9.3200 138° Southeast 494 568 37,000  Level FlightAware
06:31 48.4880 9.3840 148° Southeast 500 575 37,000  Level FlightAware
06:32 48.3910 9.4770 148° Southeast 493 567 37,000  Level FlightAware
06:33 48.3010 9.5630 148° Southeast 493 567 37,000  Level FlightAware
06:34 48.1560 9.7000 148° Southeast 493 567 37,000  Level FlightAware
06:37 47.9877 10.1141 121° Southeast  Level Estimated
06:37 47.8590 9.9780 121° Southeast 498 573 37,000  Level FlightAware
06:38 47.7200 10.1070 148° Southeast 499 574 37,000  Level FlightAware
06:39 47.5850 10.2320 148° Southeast 499 574 37,000  Level FlightAware
06:40 47.4340 10.3700 148° Southeast 498 573 37,000  Level FlightAware
06:41 47.2980 10.4950 148° Southeast 506 582 37,000  Level FlightAware
06:42 47.2110 10.5730 149° Southeast 508 585 37,100  Climbing FlightAware
06:44 47.0100 10.7410 150° Southeast 506 582 37,000 -60 Descending FlightAware
06:45 46.8950 10.8240 154° Southeast 496 571 37,000  Level FlightAware
06:45 46.8090 10.8820 155° Southeast 501 577 37,000  Level FlightAware
06:46 46.7170 10.9460 154° Southeast 500 575 37,000  Level FlightAware
06:47 46.5720 11.0460 155° Southeast 498 573 37,000  Level FlightAware
06:48 46.4250 11.1450 155° Southeast 494 568 37,100  Climbing FlightAware
06:49 46.3500 11.1960 155° Southeast 495 570 37,000 -120 Descending FlightAware
06:50 46.2610 11.2570 155° Southeast 494 568 37,000  Level FlightAware
06:51 46.1250 11.3490 155° Southeast 494 568 37,000  Level FlightAware
06:51 46.0500 11.4000 155° Southeast 497 572 37,000  Level FlightAware
06:52 45.9680 11.4560 155° Southeast 498 573 37,000  Level FlightAware
06:53 45.8210 11.5540 155° Southeast 496 571 37,100  Climbing FlightAware
06:55 45.6830 11.6980 144° Southeast 507 583 37,000  Descending FlightAware
06:56 45.5900 11.8980 124° Southeast 522 601 37,100  Climbing FlightAware
06:56 45.5480 12.0040 119° Southeast 521 600 37,000 -120 Descending FlightAware
06:57 45.4800 12.1450 124° Southeast 520 598 37,000  Level FlightAware
06:58 45.4030 12.2950 126° Southeast 522 601 37,000  Level FlightAware
06:59 45.3520 12.3940 126° Southeast 519 597 37,000  Level FlightAware
06:59 45.2800 12.5330 126° Southeast 522 601 37,000  Level FlightAware
07:01 45.1780 12.7270 127° Southeast 524 603 37,000  Level FlightAware
07:02 45.0760 12.9220 126° Southeast 526 605 37,100  Climbing FlightAware
07:03 44.9800 13.1230 124° Southeast 525 604 37,000 -60 Descending FlightAware
07:04 44.8890 13.3270 122° Southeast 525 604 37,000  Level FlightAware
07:05 44.8440 13.4280 122° Southeast 523 602 37,000  Level FlightAware
07:06 44.7810 13.5700 122° Southeast 523 602 37,000  Level FlightAware
07:06 44.7100 13.7280 122° Southeast 521 600 37,000 60 Level FlightAware
07:07 44.6540 13.8520 122° Southeast 522 601 37,100 60 Climbing FlightAware
07:08 44.5990 13.9730 123° Southeast 523 602 37,100  Level FlightAware
07:09 44.5480 14.0860 122° Southeast 525 604 37,100  Level FlightAware
07:09 44.4930 14.2120 121° Southeast 527 606 37,100  Level FlightAware
07:10 44.4310 14.3410 124° Southeast 533 613 37,100 -120 Level FlightAware
07:11 44.3830 14.4460 123° Southeast 535 616 37,000  Descending FlightAware
07:11 44.3290 14.5620 123° Southeast 537 618 37,100 60 Climbing FlightAware
07:12 44.2720 14.6840 123° Southeast 538 619 37,100 -120 Level FlightAware
07:13 44.2010 14.8380 123° Southeast 538 619 37,000  Descending FlightAware
07:13 44.1480 14.9510 123° Southeast 536 617 37,100 60 Climbing FlightAware
07:14 44.0970 15.0580 124° Southeast 535 616 37,100  Level FlightAware
07:15 44.0400 15.1780 123° Southeast 532 612 37,100 -120 Level FlightAware
07:16 43.9730 15.3190 123° Southeast 531 611 37,000 -120 Descending FlightAware
07:16 43.9150 15.4420 123° Southeast 531 611 37,000 60 Level FlightAware
07:17 43.8620 15.5510 124° Southeast 533 613 37,100  Climbing FlightAware
07:18 43.8050 15.6680 124° Southeast 533 613 37,000 -120 Descending FlightAware
07:18 43.7440 15.7970 123° Southeast 535 616 37,000 60 Level FlightAware
07:19 43.6920 15.9030 124° Southeast 537 618 37,100 60 Climbing FlightAware
07:20 43.6270 16.0390 123° Southeast 545 627 37,100  Level FlightAware
07:20 43.5750 16.1430 125° Southeast 548 631 37,100 -120 Level FlightAware
07:21 43.5040 16.2880 124° Southeast 550 633 37,000  Descending FlightAware
07:22 43.4510 16.3990 123° Southeast 548 631 37,100 60 Climbing FlightAware
07:23 43.3870 16.5370 123° Southeast 545 627 37,100  Level FlightAware
07:23 43.3340 16.6520 122° Southeast 544 626 37,100 -120 Level FlightAware
07:24 43.2760 16.7740 123° Southeast 541 623 37,000  Descending FlightAware
07:25 43.2220 16.8870 123° Southeast 539 620 37,100 60 Climbing FlightAware
07:25 43.1600 17.0160 123° Southeast 536 617 37,100 -120 Level FlightAware
07:26 43.1070 17.1270 123° Southeast 533 613 37,000 -120 Descending FlightAware
07:27 43.0500 17.2430 124° Southeast 532 612 37,000 60 Level FlightAware
07:27 42.9880 17.3730 123° Southeast 531 611 37,100 60 Climbing FlightAware
07:28 42.9280 17.4940 124° Southeast 531 611 37,100 -120 Level FlightAware
07:29 42.8800 17.5950 123° Southeast 535 616 37,000 -120 Descending FlightAware
07:30 42.8070 17.7490 123° Southeast 536 617 37,000  Level FlightAware
07:30 42.7550 17.8590 123° Southeast 536 617 37,000 60 Level FlightAware
07:31 42.7070 17.9610 123° Southeast 536 617 37,100  Climbing FlightAware
07:32 42.6380 18.0730 130° Southeast 523 602 37,000 -120 Descending FlightAware
07:32 42.5690 18.1780 132° Southeast 519 597 37,000  Level FlightAware
07:33 42.4990 18.2840 132° Southeast 525 604 37,000  Level FlightAware
07:34 42.4290 18.3840 133° Southeast 520 598 37,000  Level FlightAware
07:34 42.3590 18.4820 134° Southeast 527 606 37,000  Level FlightAware
07:35 42.2840 18.5900 133° Southeast 529 609 37,000  Level FlightAware
07:36 42.2180 18.6870 133° Southeast 529 609 37,000 60 Level FlightAware
07:37 42.1490 18.7850 134° Southeast 530 610 37,100  Climbing FlightAware
07:37 42.0730 18.8940 133° Southeast 531 611 37,000  Descending FlightAware
07:38 41.9980 18.9990 134° Southeast 531 611 37,100 60 Climbing FlightAware
07:39 41.9310 19.0950 133° Southeast 532 612 37,100 -120 Level FlightAware
07:39 41.8630 19.1910 134° Southeast 533 613 37,000  Descending FlightAware
07:40 41.7960 19.2840 134° Southeast 532 612 37,100 60 Climbing FlightAware
07:41 41.7300 19.3660 137° Southeast 528 608 37,100  Level FlightAware
07:41 41.6350 19.4710 140° Southeast 528 608 37,100 -120 Level FlightAware
07:42 41.5520 19.5660 139° Southeast 528 608 37,000 -120 Descending FlightAware
07:43 41.4770 19.6500 140° Southeast 529 609 37,000  Level FlightAware
07:44 41.4100 19.7270 139° Southeast 533 613 37,000 60 Level FlightAware
07:44 41.3230 19.8440 135° Southeast 538 619 37,100  Climbing FlightAware
07:45 41.2560 19.9330 135° Southeast 538 619 37,000 -120 Descending FlightAware
07:46 41.1760 20.0400 135° Southeast 540 621 37,000  Level FlightAware
07:46 41.1060 20.1340 135° Southeast 542 624 37,000  Level FlightAware
07:47 41.0230 20.2450 135° Southeast 543 625 37,000  Level FlightAware
07:48 40.9530 20.3370 135° Southeast 546 628 37,000  Level FlightAware
07:48 40.8810 20.4310 135° Southeast 550 633 37,000 60 Level FlightAware
07:49 40.8020 20.5360 135° Southeast 553 636 37,100  Climbing FlightAware
07:50 40.7280 20.6340 135° Southeast 555 639 37,000 -120 Descending FlightAware
07:51 40.6520 20.7320 136° Southeast 550 633 37,000  Level FlightAware
07:51 40.5810 20.8240 135° Southeast 550 633 37,000 60 Level FlightAware
07:52 40.5050 20.9220 136° Southeast 555 639 37,100  Climbing FlightAware
07:53 40.4210 21.0240 137° Southeast 552 635 37,000 -120 Descending FlightAware
07:53 40.3450 21.1130 138° Southeast 552 635 37,000  Level FlightAware
07:54 40.2570 21.2120 139° Southeast 552 635 37,000 60 Level FlightAware
07:55 40.1820 21.2980 139° Southeast 552 635 37,100  Climbing FlightAware
07:55 40.1030 21.3880 139° Southeast 552 635 37,000 -120 Descending FlightAware
07:56 40.0180 21.4860 139° Southeast 551 634 37,000  Level FlightAware
07:57 39.9460 21.5670 139° Southeast 552 635 37,000 60 Level FlightAware
07:58 39.8630 21.6610 139° Southeast 552 635 37,100  Climbing FlightAware
07:58 39.7760 21.7590 139° Southeast 554 638 37,000 -120 Descending FlightAware
07:59 39.6980 21.8460 139° Southeast 555 639 37,000  Level FlightAware
08:00 39.6140 21.9390 140° Southeast 557 641 37,000  Level FlightAware
08:00 39.5320 22.0310 139° Southeast 557 641 37,000  Level FlightAware
08:01 39.4540 22.1180 139° Southeast 556 640 37,000  Level FlightAware
08:02 39.3660 22.2150 140° Southeast 551 634 37,000  Level FlightAware
08:02 39.2870 22.3020 140° Southeast 552 635 37,000  Level FlightAware
08:03 39.1990 22.3990 139° Southeast 552 635 37,000 60 Level FlightAware
08:04 39.1140 22.4920 140° Southeast 558 642 37,100  Climbing FlightAware
08:05 39.0230 22.5930 139° Southeast 556 640 37,000 -120 Descending FlightAware
08:05 38.9450 22.6770 140° Southeast 556 640 37,000  Level FlightAware
08:06 38.8660 22.7640 139° Southeast 556 640 37,000 60 Level FlightAware
08:07 38.7780 22.8580 140° Southeast 556 640 37,100  Climbing FlightAware
08:07 38.7010 22.9410 140° Southeast 557 641 37,000 -120 Descending FlightAware
08:08 38.6220 23.0250 140° Southeast 558 642 37,000  Level FlightAware
08:09 38.5310 23.1230 140° Southeast 560 644 37,000  Level FlightAware
08:09 38.4510 23.2100 140° Southeast 561 646 37,000  Level FlightAware
08:10 38.3630 23.3040 140° Southeast 562 647 37,000  Level FlightAware
08:11 38.2840 23.3870 140° Southeast 563 648 37,000  Level FlightAware
08:12 38.2040 23.4720 140° Southeast 564 649 37,000  Level FlightAware
08:12 38.1120 23.5700 140° Southeast 565 650 37,000  Level FlightAware
08:13 38.0310 23.6540 141° Southeast 565 650 37,000  Level FlightAware
08:14 37.9420 23.7470 140° Southeast 567 652 37,000  Level FlightAware
08:14 37.8650 23.8390 137° Southeast 573 659 37,000  Level FlightAware
08:15 37.7970 23.9460 129° Southeast 577 664 37,000  Level FlightAware
08:16 37.7260 24.0690 126° Southeast 578 665 37,000  Level FlightAware
08:16 37.6680 24.1810 123° Southeast 577 664 37,000 60 Level FlightAware
08:17 37.6020 24.3050 124° Southeast 578 665 37,100  Climbing FlightAware
08:18 37.5420 24.4200 123° Southeast 578 665 37,000  Descending FlightAware
08:19 37.4820 24.5320 124° Southeast 578 665 37,100  Climbing FlightAware
08:19 37.4170 24.6550 124° Southeast 578 665 37,000  Descending FlightAware
08:20 37.3570 24.7700 123° Southeast 579 666 37,100  Climbing FlightAware
08:21 37.2910 24.8930 124° Southeast 577 664 37,000 -120 Descending FlightAware
08:21 37.2310 25.0070 123° Southeast 576 663 37,000  Level FlightAware
08:22 37.1730 25.1160 124° Southeast 576 663 37,000  Level FlightAware
08:23 37.1110 25.2320 124° Southeast 576 663 37,000  Level FlightAware
08:23 37.0460 25.3510 124° Southeast 575 662 37,000  Level FlightAware
08:24 36.9890 25.4560 124° Southeast 576 663 37,000  Level FlightAware
08:25 36.9180 25.5880 124° Southeast 575 662 37,000  Level FlightAware
08:26 36.8580 25.6980 124° Southeast 576 663 37,000  Level FlightAware
08:26 36.7930 25.8190 124° Southeast 575 662 37,000  Level FlightAware
08:27 36.7400 25.9150 125° Southeast 575 662 37,000  Level FlightAware
08:28 36.6720 26.0380 125° Southeast 575 662 37,000  Level FlightAware
08:28 36.6020 26.1670 124° Southeast 576 663 37,000  Level FlightAware
08:29 36.5460 26.2800 122° Southeast 575 662 37,000  Level FlightAware
08:30 36.4940 26.4090 117° Southeast 574 661 37,000  Level FlightAware
08:30 36.4470 26.5270 116° Southeast 574 661 37,000  Level FlightAware
08:31 36.4050 26.6300 117° Southeast 573 659 37,000 60 Level FlightAware
08:32 36.3460 26.7770 116° Southeast 572 658 37,100 300 Climbing FlightAware
08:33 36.3160 26.8510 117° Southeast 572 658 37,500 1,320 Climbing FlightAware
08:33 36.2560 26.9980 117° Southeast 559 643 39,000 1,080 Climbing FlightAware
08:34 36.2130 27.1000 118° Southeast 558 642 39,100 60 Climbing FlightAware
08:35 36.1520 27.2510 117° Southeast 554 638 39,100 -120 Level FlightAware
08:35 36.1000 27.3740 118° Southeast 550 633 39,000  Descending FlightAware
08:36 36.0530 27.4890 117° Southeast 547 629 39,100 60 Climbing FlightAware
08:37 36.0040 27.6080 117° Southeast 546 628 39,100 -120 Level FlightAware
08:38 35.9570 27.7080 120° Southeast 543 625 39,000  Descending FlightAware
08:38 35.8890 27.8300 125° Southeast 541 623 39,100 60 Climbing FlightAware
08:39 35.8360 27.9230 125° Southeast 540 621 39,100 -120 Level FlightAware
08:40 35.7820 28.0160 126° Southeast 540 621 39,000 -120 Descending FlightAware
08:40 35.6890 28.1710 126° Southeast 537 618 39,000 60 Level FlightAware
08:41 35.6230 28.2850 125° Southeast 535 616 39,100  Climbing FlightAware
08:42 35.5650 28.3800 127° Southeast 535 616 39,000 -120 Descending FlightAware
08:43 35.5070 28.4790 126° Southeast 535 616 39,000  Level FlightAware
08:43 35.4420 28.5890 126° Southeast 536 617 39,000 60 Level FlightAware
08:44 35.3830 28.6870 126° Southeast 536 617 39,100 60 Climbing FlightAware
08:45 35.3190 28.7960 126° Southeast 537 618 39,100 -120 Level FlightAware
08:45 35.2570 28.8980 127° Southeast 538 619 39,000  Descending FlightAware
08:46 35.1990 28.9940 126° Southeast 537 618 39,100 60 Climbing FlightAware
08:47 35.1330 29.1040 126° Southeast 537 618 39,100  Level FlightAware
08:47 35.0750 29.1990 127° Southeast 537 618 39,100 -120 Level FlightAware
08:48 35.0110 29.3060 126° Southeast 537 618 39,000  Descending FlightAware
08:49 34.9510 29.4020 127° Southeast 537 618 39,100  Climbing FlightAware
08:50 34.9000 29.4860 126° Southeast 538 619 39,000 -120 Descending FlightAware
08:50 34.8280 29.6030 127° Southeast 538 619 39,000  Level FlightAware
08:51 34.7680 29.7020 126° Southeast 538 619 39,000 60 Level FlightAware
08:52 34.6980 29.8160 127° Southeast 538 619 39,100  Climbing FlightAware
08:52 34.6470 29.8980 127° Southeast 538 619 39,000 -120 Descending FlightAware
08:53 34.5870 29.9980 126° Southeast 538 619 39,000 60 Level FlightAware
08:54 34.5220 30.1270 121° Southeast 531 611 39,100  Climbing FlightAware
08:54 34.4790 30.2180 120° Southeast 531 611 39,000 -120 Descending FlightAware
08:55 34.4260 30.3300 120° Southeast 522 601 39,000  Level FlightAware
08:56 34.3700 30.4460 120° Southeast 516 594 39,000  Level FlightAware
08:57 34.3220 30.5450 120° Southeast 514 592 39,000  Level FlightAware
08:57 34.2700 30.6530 120° Southeast 508 585 39,000  Level FlightAware
08:59 34.1340 30.9310 121° Southeast 505 581 39,000  Level FlightAware
09:00 34.0870 31.0280 120° Southeast 505 581 39,000  Level FlightAware
09:01 34.0340 31.1350 121° Southeast 506 582 39,000  Level FlightAware
09:01 33.9900 31.2250 121° Southeast 507 583 39,000  Level FlightAware
09:02 33.9340 31.3390 121° Southeast 508 585 39,000  Level FlightAware
09:03 33.8800 31.4490 121° Southeast 510 587 39,000  Level FlightAware
09:03 33.8330 31.5410 122° Southeast 510 587 39,000  Level FlightAware
09:04 33.7830 31.6440 120° Southeast 511 588 39,000  Level FlightAware
09:05 33.7270 31.7560 121° Southeast 510 587 39,000  Level FlightAware
09:06 33.6290 31.9500 121° Southeast 509 586 39,000  Level FlightAware
09:07 33.5390 32.1310 121° Southeast 507 583 39,000  Level FlightAware
09:09 33.4920 32.3030 108° East 503 579 39,000  Level FlightAware
09:09 33.4690 32.4070 105° East 501 577 39,000  Level FlightAware
09:10 33.4350 32.5630 105° East 499 574 39,000 -240 Level FlightAware
09:11 33.4120 32.6700 104° East 496 571 38,700 -780 Descending FlightAware
09:12 33.3900 32.7800 103° East 496 571 37,900 -1,740 Descending FlightAware
09:12 33.3650 32.8990 104° East 493 567 36,300 -2,280 Descending FlightAware
09:13 33.3380 33.0150 106° East 489 563 34,700 -2,220 Descending FlightAware
09:14 33.3070 33.1130 111° Southeast 484 557 33,200 -2,220 Descending FlightAware
09:14 33.2840 33.1430 133° Southeast 487 560 32,700 -2,100 Descending FlightAware
09:15 33.2160 33.2080 141° Southeast 483 556 31,300 -2,160 Descending FlightAware
09:15 33.1410 33.2960 135° Southeast 471 542 29,700 -2,040 Descending FlightAware
09:16 33.1000 33.3490 133° Southeast 464 534 28,800 -1,440 Descending FlightAware
09:17 33.0130 33.4630 132° Southeast 458 527 27,500 -2,040 Descending FlightAware
09:17 32.9650 33.4720 171° South 440 506 26,100 -2,760 Descending FlightAware
09:18 32.8550 33.4790 177° South 417 480 24,300 -1,980 Descending FlightAware
09:19 32.7800 33.4800 179° South 407 468 23,000 -1,920 Descending FlightAware
09:19 32.6990 33.4840 178° South 400 460 21,600 -2,040 Descending FlightAware
09:20 32.6460 33.5130 155° Southeast 399 459 20,500 -1,740 Descending FlightAware
09:21 32.6010 33.5790 129° Southeast 382 440 19,600 -1,320 Descending FlightAware
09:21 32.5810 33.6660 105° East 357 411 18,700 -840 Descending FlightAware
09:22 32.5690 33.7290 103° East 354 407 18,500 -960 Descending FlightAware
09:23 32.5530 33.8010 105° East 347 399 17,500 -2,220 Descending FlightAware
09:23 32.5370 33.8280 125° Southeast 343 395 16,500 -2,040 Descending FlightAware
09:24 32.4960 33.9130 120° Southeast 334 384 15,300 -1,440 Descending FlightAware
09:24 32.4740 33.9590 120° Southeast 328 377 14,600 -1,440 Descending FlightAware
09:25 32.4370 34.0360 120° Southeast 320 368 13,400 -1,500 Descending FlightAware
09:26 32.4040 34.1040 120° Southeast 315 362 12,300 -1,440 Descending FlightAware
09:26 32.3830 34.1470 120° Southeast 311 358 11,600 -1,020 Descending FlightAware
09:27 32.3490 34.2180 120° Southeast 307 353 11,000 -1,620 Descending FlightAware
09:28 32.3160 34.2850 120° Southeast 293 337 9,100 -2,340 Descending FlightAware
09:28 32.3070 34.3050 118° Southeast 289 333 8,700 -600 Descending FlightAware
09:29 32.2910 34.3380 120° Southeast 289 333 8,700  Level FlightAware
09:29 32.2750 34.3730 118° Southeast 289 333 8,700  Level FlightAware
09:29 32.2690 34.3850 121° Southeast 289 333 8,700  Level FlightAware
09:30 32.2530 34.4200 118° Southeast 289 333 8,700  Level FlightAware
09:30 32.2420 34.4430 119° Southeast 289 333 8,700  Level FlightAware
09:33 32.0487 34.7855 125° Southeast  Level FlightAware Approximate
09:34 32.0000 34.8667 125° Southeast  Level FlightAware Approximate
09:35 32.0095 34.8769 125° Southeast  Level Estimated
09:36 32.0095 34.8769 125° Southeast  Level Estimated
09:37 32.0095 34.8769 125° Southeast  Level Estimated
09:38 32.0095 34.8769 125° Southeast  Level Estimated
09:39 32.0095 34.8769 125° Southeast  Level Estimated
09:40 32.0095 34.8769 125° Southeast  Level Estimated
09:41 32.0095 34.8769 125° Southeast  Level Estimated